createdAt,value
2018-05-24T00:02:16.718Z,69.90
2018-05-24T00:04:46.164Z,69.70
2018-05-24T00:07:16.267Z,69.60
2018-05-24T00:09:45.619Z,69.60
2018-05-24T00:12:15.517Z,68.90
2018-05-24T00:14:48.200Z,67.70
2018-05-24T00:17:19.610Z,67.80
2018-05-24T00:19:53.164Z,67.60
2018-05-24T00:24:59.311Z,67.30
2018-05-24T00:27:29.361Z,67.30
2018-05-24T00:29:59.902Z,67.40
2018-05-24T00:32:35.404Z,67.40
2018-05-24T00:35:04.665Z,67.50
2018-05-24T00:37:33.869Z,67.50
2018-05-24T00:40:03.154Z,68.00
2018-05-24T00:42:32.369Z,68.10
2018-05-24T00:45:01.819Z,68.00
2018-05-24T00:47:31.638Z,68.00
2018-05-24T00:50:01.962Z,68.80
2018-05-24T00:52:34.397Z,69.00
2018-05-24T00:55:12.854Z,69.00
2018-05-24T00:57:42.933Z,69.30
2018-05-24T01:00:13.188Z,69.90
2018-05-24T01:02:42.479Z,70.20
2018-05-24T01:05:12.039Z,69.90
2018-05-24T01:07:42.075Z,71.00
2018-05-24T01:10:12.023Z,71.60
2018-05-24T01:12:41.731Z,71.80
2018-05-24T01:15:11.034Z,71.80
2018-05-24T01:17:40.390Z,71.40
2018-05-24T01:20:09.644Z,70.70
2018-05-24T01:22:40.094Z,70.90
2018-05-24T01:25:09.282Z,70.90
2018-05-24T01:27:39.255Z,70.60
2018-05-24T01:30:09.033Z,70.60
2018-05-24T01:32:38.151Z,70.20
2018-05-24T01:35:07.216Z,70.80
2018-05-24T01:37:58.273Z,71.30
2018-05-24T01:40:27.507Z,71.90
2018-05-24T01:42:57.972Z,73.00
2018-05-24T01:45:27.480Z,73.00
2018-05-24T01:47:58.133Z,73.40
2018-05-24T01:50:27.411Z,74.30
2018-05-24T01:52:56.659Z,75.50
2018-05-24T01:55:31.896Z,76.00
2018-05-24T01:58:01.423Z,76.10
2018-05-24T02:00:31.410Z,76.70
2018-05-24T02:03:02.820Z,76.50
2018-05-24T02:05:31.922Z,76.50
2018-05-24T02:08:00.952Z,76.70
2018-05-24T02:10:30.183Z,76.90
2018-05-24T02:12:59.358Z,76.90
2018-05-24T02:15:31.306Z,77.20
2018-05-24T02:18:00.341Z,77.30
2018-05-24T02:20:29.452Z,77.60
2018-05-24T02:22:58.948Z,77.80
2018-05-24T02:25:28.106Z,78.00
2018-05-24T02:27:57.426Z,78.30
2018-05-24T02:30:28.207Z,78.60
2018-05-24T02:32:57.521Z,78.60
2018-05-24T02:35:27.067Z,78.90
2018-05-24T02:37:57.675Z,79.00
2018-05-24T02:40:27.011Z,79.00
2018-05-24T02:42:56.247Z,78.30
2018-05-24T02:45:25.608Z,77.90
2018-05-24T02:47:54.691Z,76.90
2018-05-24T02:50:24.604Z,76.70
2018-05-24T02:52:54.396Z,76.40
2018-05-24T02:55:23.847Z,76.40
2018-05-24T02:57:52.894Z,76.70
2018-05-24T03:00:23.517Z,76.30
2018-05-24T03:02:52.803Z,76.30
2018-05-24T03:05:22.115Z,74.60
2018-05-24T03:07:51.965Z,74.90
2018-05-24T03:10:22.134Z,74.50
2018-05-24T03:12:51.287Z,74.40
2018-05-24T03:15:20.571Z,75.00
2018-05-24T03:17:50.816Z,74.90
2018-05-24T03:20:20.840Z,77.70
2018-05-24T03:22:50.541Z,77.70
2018-05-24T03:25:20.591Z,74.80
2018-05-24T03:27:50.277Z,74.80
2018-05-24T03:30:20.495Z,77.00
2018-05-24T03:32:50.185Z,77.00
2018-05-24T03:35:19.745Z,75.60
2018-05-24T03:38:51.565Z,76.10
2018-05-24T03:41:21.059Z,76.10
2018-05-24T03:43:50.361Z,77.10
2018-05-24T03:46:19.588Z,77.30
2018-05-24T03:48:49.066Z,77.20
2018-05-24T03:51:19.271Z,76.10
2018-05-24T03:53:49.416Z,76.30
2018-05-24T03:56:19.148Z,76.20
2018-05-24T03:58:48.685Z,77.40
2018-05-24T04:02:28.239Z,77.50
2018-05-24T04:04:57.555Z,77.00
2018-05-24T04:07:26.751Z,75.80
2018-05-24T04:09:56.065Z,76.30
2018-05-24T04:12:26.131Z,77.40
2018-05-24T04:21:44.044Z,76.50
2018-05-24T04:24:13.256Z,77.40
2018-05-24T04:26:43.579Z,78.30
2018-05-24T04:29:13.704Z,78.40
2018-05-24T04:31:43.761Z,78.50
2018-05-24T04:34:14.279Z,80.20
2018-05-24T04:36:43.643Z,80.20
2018-05-24T04:39:14.339Z,82.80
2018-05-24T04:41:44.044Z,82.80
2018-05-24T04:44:13.199Z,84.10
2018-05-24T04:46:51.324Z,85.00
2018-05-24T04:49:21.788Z,87.20
2018-05-24T04:51:51.635Z,87.20
2018-05-24T04:54:22.139Z,88.00
2018-05-24T04:56:52.033Z,88.00
2018-05-24T04:59:21.663Z,88.10
2018-05-24T05:01:57.030Z,88.20
2018-05-24T05:04:27.215Z,87.80
2018-05-24T05:07:05.823Z,86.60
2018-05-24T05:09:37.071Z,85.60
2018-05-24T05:12:06.475Z,85.50
2018-05-24T05:14:36.022Z,83.80
2018-05-24T05:17:05.678Z,83.30
2018-05-24T05:19:35.156Z,82.60
2018-05-24T05:22:04.664Z,82.10
2018-05-24T05:24:33.849Z,81.60
2018-05-24T05:27:05.443Z,80.60
2018-05-24T05:29:35.854Z,80.10
2018-05-24T05:32:05.600Z,80.90
2018-05-24T05:34:34.796Z,79.80
2018-05-24T05:37:04.126Z,79.40
2018-05-24T05:39:34.670Z,78.90
2018-05-24T05:42:04.419Z,78.60
2018-05-24T05:44:36.323Z,78.80
2018-05-24T05:47:06.316Z,78.70
2018-05-24T05:49:37.040Z,78.50
2018-05-24T05:52:18.747Z,78.60
2018-05-24T05:54:51.256Z,78.90
2018-05-24T05:57:21.339Z,78.70
2018-05-24T05:59:53.315Z,78.80
2018-05-24T06:02:24.677Z,77.80
2018-05-24T06:04:53.806Z,77.70
2018-05-24T06:07:23.796Z,78.50
2018-05-24T06:09:53.177Z,78.30
2018-05-24T06:12:31.262Z,79.00
2018-05-24T06:15:11.844Z,80.00
2018-05-24T06:17:42.396Z,80.00
2018-05-24T06:20:12.589Z,80.00
2018-05-24T06:22:42.769Z,79.50
2018-05-24T06:25:11.920Z,79.30
2018-05-24T06:27:42.386Z,79.10
2018-05-24T06:30:12.630Z,79.10
2018-05-24T06:32:43.500Z,78.80
2018-05-24T06:35:20.983Z,78.30
2018-05-24T06:38:02.954Z,78.20
2018-05-24T06:40:32.390Z,76.90
2018-05-24T06:43:01.703Z,75.50
2018-05-24T06:45:31.850Z,75.70
2018-05-24T06:48:01.400Z,75.70
2018-05-24T06:50:32.518Z,75.00
2018-05-24T06:53:06.101Z,75.10
2018-05-24T06:55:58.192Z,73.60
2018-05-24T06:58:28.211Z,71.60
2018-05-24T07:01:00.912Z,72.70
2018-05-24T07:03:30.800Z,71.40
2018-05-24T07:06:00.227Z,71.20
2018-05-24T07:08:29.529Z,70.30
2018-05-24T07:11:00.125Z,72.20
2018-05-24T07:13:29.403Z,72.20
2018-05-24T07:15:58.849Z,72.50
2018-05-24T07:18:29.142Z,72.20
2018-05-24T07:21:00.300Z,69.60
2018-05-24T07:23:38.700Z,69.60
2018-05-24T07:26:08.936Z,69.80
2018-05-24T07:28:38.441Z,69.10
2018-05-24T07:31:08.613Z,66.90
2018-05-24T07:35:09.306Z,59.00
2018-05-24T07:37:39.234Z,58.90
2018-05-24T07:40:10.842Z,55.10
2018-05-24T07:42:41.439Z,55.00
2018-05-24T07:45:12.586Z,52.60
2018-05-24T07:47:46.733Z,52.60
2018-05-24T07:50:17.677Z,53.00
2018-05-24T07:52:57.208Z,54.10
2018-05-24T07:55:28.889Z,55.60
2018-05-24T07:58:00.107Z,57.90
2018-05-24T08:00:34.323Z,61.80
2018-05-24T08:03:20.338Z,62.50
2018-05-24T08:05:50.494Z,65.80
2018-05-24T08:09:04.175Z,67.40
2018-05-24T08:11:36.133Z,67.60
2018-05-24T08:14:06.473Z,67.90
2018-05-24T08:16:36.326Z,67.70
2018-05-24T08:19:06.307Z,65.70
2018-05-24T08:21:40.292Z,66.20
2018-05-24T08:24:09.970Z,66.60
2018-05-24T08:26:39.984Z,63.70
2018-05-24T08:29:09.498Z,58.80
2018-05-24T08:31:39.837Z,56.30
2018-05-24T08:34:11.220Z,53.50
2018-05-24T08:36:40.682Z,50.50
2018-05-24T08:39:11.181Z,48.90
2018-05-24T08:41:45.621Z,46.90
2018-05-24T08:44:20.271Z,43.90
2018-05-24T08:46:51.562Z,40.90
2018-05-24T08:49:21.268Z,40.90
2018-05-24T08:51:51.782Z,39.50
2018-05-24T08:54:21.369Z,40.50
2018-05-24T08:57:12.489Z,41.50
2018-05-24T08:59:44.870Z,45.60
2018-05-24T09:02:20.608Z,47.20
2018-05-24T09:11:33.224Z,44.30
2018-05-24T09:14:07.306Z,43.90
2018-05-24T09:16:40.405Z,41.20
2018-05-24T09:19:32.834Z,41.20
2018-05-24T09:22:24.707Z,39.70
2018-05-24T09:25:12.200Z,37.40
2018-05-24T09:27:48.091Z,36.30
2018-05-24T09:30:21.152Z,36.10
2018-05-24T09:33:07.883Z,37.00
2018-05-24T09:35:40.904Z,37.10
2018-05-24T09:38:11.996Z,37.40
2018-05-24T09:40:42.171Z,38.50
2018-05-24T09:43:27.131Z,39.20
2018-05-24T09:46:02.357Z,45.60
2018-05-24T09:48:34.968Z,45.00
2018-05-24T09:51:14.235Z,45.20
2018-05-24T09:53:45.486Z,45.20
2018-05-24T09:56:30.270Z,44.00
2018-05-24T09:59:21.386Z,42.70
2018-05-24T10:02:05.637Z,42.70
2018-05-24T10:04:40.509Z,41.20
2018-05-24T10:07:14.821Z,38.60
2018-05-24T10:09:47.946Z,38.50
2018-05-24T10:12:21.980Z,38.60
2018-05-24T10:14:55.982Z,41.10
2018-05-24T10:17:32.910Z,41.90
2018-05-24T10:20:08.691Z,42.10
2018-05-24T10:23:11.279Z,43.40
2018-05-24T10:25:59.300Z,44.70
2018-05-24T10:28:59.560Z,45.70
2018-05-24T10:31:33.781Z,45.00
2018-05-24T10:34:04.242Z,44.30
2018-05-24T10:36:36.887Z,43.60
2018-05-24T10:39:07.519Z,43.60
2018-05-24T10:41:43.577Z,46.70
2018-05-24T10:44:21.318Z,49.80
2018-05-24T10:46:58.336Z,52.70
2018-05-24T10:49:45.840Z,52.70
2018-05-24T10:52:31.664Z,53.50
2018-05-24T10:55:01.564Z,55.60
2018-05-24T10:57:31.110Z,57.30
2018-05-24T11:00:00.919Z,58.10
2018-05-24T11:02:30.602Z,59.50
2018-05-24T11:05:00.065Z,59.40
2018-05-24T11:07:36.654Z,61.60
2018-05-24T11:10:11.853Z,61.60
2018-05-24T11:12:42.445Z,60.70
2018-05-24T11:15:11.775Z,61.00
2018-05-24T11:17:41.754Z,58.60
2018-05-24T11:20:11.560Z,56.90
2018-05-24T11:22:40.991Z,56.40
2018-05-24T11:25:10.367Z,56.00
2018-05-24T11:27:40.028Z,56.70
2018-05-24T11:30:16.418Z,59.80
2018-05-24T11:32:46.122Z,65.20
2018-05-24T11:35:17.208Z,66.70
2018-05-24T11:37:47.432Z,70.40
2018-05-24T11:40:17.396Z,71.80
2018-05-24T11:42:50.498Z,72.10
2018-05-24T11:45:21.499Z,71.40
2018-05-24T11:48:00.102Z,72.10
2018-05-24T11:50:53.271Z,72.70
2018-05-24T11:53:37.599Z,71.60
2018-05-24T11:56:08.241Z,72.50
2018-05-24T11:58:42.812Z,74.00
2018-05-24T12:01:24.573Z,74.60
2018-05-24T12:03:58.238Z,74.50
2018-05-24T12:06:28.734Z,74.60
2018-05-24T12:08:58.478Z,74.60
2018-05-24T12:11:31.174Z,74.10
2018-05-24T12:14:17.746Z,74.00
2018-05-24T12:16:56.802Z,74.50
2018-05-24T12:19:32.318Z,74.50
2018-05-24T12:22:02.939Z,73.80
2018-05-24T12:24:32.843Z,73.70
2018-05-24T12:27:10.743Z,72.70
2018-05-24T12:29:46.738Z,73.50
2018-05-24T12:32:17.792Z,72.00
2018-05-24T12:34:51.262Z,71.10
2018-05-24T12:37:21.311Z,72.80
2018-05-24T12:39:51.394Z,72.50
2018-05-24T12:42:22.002Z,73.70
2018-05-24T12:45:05.737Z,73.70
2018-05-24T12:47:43.015Z,74.40
2018-05-24T12:50:13.011Z,74.30
2018-05-24T12:52:42.568Z,73.90
2018-05-24T12:55:15.884Z,72.30
2018-05-24T12:57:47.500Z,69.90
2018-05-24T13:00:19.589Z,70.50
2018-05-24T13:02:49.825Z,70.50
2018-05-24T13:05:19.396Z,69.90
2018-05-24T13:07:49.224Z,70.00
2018-05-24T13:10:19.285Z,68.60
2018-05-24T13:12:48.793Z,63.70
2018-05-24T13:15:18.471Z,61.70
2018-05-24T13:17:50.922Z,68.20
2018-05-24T13:20:25.417Z,68.20
2018-05-24T13:23:03.677Z,66.20
2018-05-24T13:25:33.875Z,68.60
2018-05-24T13:28:04.823Z,70.40
2018-05-24T13:30:43.852Z,71.10
2018-05-24T13:33:32.429Z,67.80
2018-05-24T13:36:03.318Z,69.60
2018-05-24T13:38:33.284Z,69.50
2018-05-24T13:41:03.222Z,66.20
2018-05-24T13:43:33.727Z,68.10
2018-05-24T13:46:22.234Z,71.00
2018-05-24T13:49:07.111Z,73.50
2018-05-24T13:51:49.255Z,73.50
2018-05-24T13:54:43.383Z,73.90
2018-05-24T13:57:22.941Z,73.80
2018-05-24T14:00:00.215Z,75.30
2018-05-24T14:02:35.843Z,76.30
2018-05-24T14:05:05.374Z,76.60
2018-05-24T14:07:47.222Z,76.30
2018-05-24T14:10:16.796Z,76.20
2018-05-24T14:12:47.353Z,74.90
2018-05-24T14:15:16.771Z,75.10
2018-05-24T14:17:46.387Z,75.60
2018-05-24T14:20:20.794Z,76.20
2018-05-24T14:23:09.044Z,77.10
2018-05-24T14:25:47.947Z,76.30
2018-05-24T14:28:18.722Z,76.50
2018-05-24T14:30:54.112Z,76.50
2018-05-24T14:33:25.889Z,77.90
2018-05-24T14:35:56.682Z,83.30
2018-05-24T14:38:29.000Z,90.60
2018-05-24T14:41:05.391Z,93.00
2018-05-24T14:43:36.235Z,93.70
2018-05-24T14:46:06.766Z,94.90
2018-05-24T14:48:45.592Z,96.00
2018-05-24T14:51:36.470Z,95.30
2018-05-24T14:54:07.481Z,94.30
2018-05-24T14:56:37.949Z,93.50
2018-05-24T14:59:07.428Z,94.30
2018-05-24T15:01:57.746Z,93.30
2018-05-24T15:04:37.710Z,93.20
2018-05-24T15:07:12.686Z,92.10
2018-05-24T15:09:47.277Z,91.20
2018-05-24T15:12:25.723Z,91.10
2018-05-24T15:14:56.561Z,91.30
2018-05-24T15:17:31.686Z,87.50
2018-05-24T15:20:04.281Z,87.20
2018-05-24T15:22:39.271Z,88.90
2018-05-24T15:25:09.902Z,88.40
2018-05-24T15:27:41.129Z,87.80
2018-05-24T15:30:21.565Z,87.00
2018-05-24T15:32:54.232Z,85.00
2018-05-24T15:35:37.630Z,86.40
2018-05-24T15:38:13.315Z,86.40
2018-05-24T15:40:43.233Z,85.90
2018-05-24T15:43:15.673Z,83.60
2018-05-24T15:45:47.551Z,82.50
2018-05-24T15:48:17.771Z,82.50
2018-05-24T15:50:54.057Z,84.60
2018-05-24T15:53:36.679Z,84.50
2018-05-24T15:56:09.783Z,85.00
2018-05-24T15:58:44.587Z,84.20
2018-05-24T16:01:14.230Z,84.10
2018-05-24T16:03:45.290Z,82.40
2018-05-24T16:06:18.676Z,82.30
2018-05-24T16:08:48.538Z,82.00
2018-05-24T16:11:18.236Z,82.60
2018-05-24T16:13:48.036Z,83.30
2018-05-24T16:16:17.896Z,84.20
2018-05-24T16:18:48.571Z,84.70
2018-05-24T16:21:19.068Z,84.90
2018-05-24T16:23:49.996Z,85.70
2018-05-24T16:26:29.988Z,86.40
2018-05-24T16:29:00.279Z,86.40
2018-05-24T16:31:48.830Z,86.40
2018-05-24T16:34:19.895Z,86.40
2018-05-24T16:36:49.745Z,85.30
2018-05-24T16:39:19.244Z,84.70
2018-05-24T16:41:51.408Z,85.60
2018-05-24T16:44:22.502Z,86.10
2018-05-24T16:46:53.478Z,85.30
2018-05-24T16:49:25.328Z,84.70
2018-05-24T16:51:55.917Z,84.60
2018-05-24T16:54:26.235Z,84.10
2018-05-24T16:56:57.238Z,84.10
2018-05-24T16:59:27.832Z,83.70
2018-05-24T17:02:09.987Z,84.80
2018-05-24T17:04:44.946Z,84.80
2018-05-24T17:07:22.194Z,85.70
2018-05-24T17:09:52.698Z,85.70
2018-05-24T17:12:30.469Z,84.50
2018-05-24T17:15:00.593Z,85.00
2018-05-24T17:17:43.628Z,85.40
2018-05-24T17:20:20.597Z,86.00
2018-05-24T17:23:02.600Z,85.80
2018-05-24T17:25:36.625Z,85.40
2018-05-24T17:28:07.852Z,85.20
2018-05-24T17:30:40.852Z,85.30
2018-05-24T17:33:24.022Z,85.70
2018-05-24T17:35:54.745Z,86.60
2018-05-24T17:38:25.116Z,87.10
2018-05-24T17:40:57.874Z,87.90
2018-05-24T17:43:39.763Z,88.20
2018-05-24T17:46:32.475Z,88.30
2018-05-24T17:49:08.269Z,88.40
2018-05-24T17:51:37.764Z,88.40
2018-05-24T17:54:23.485Z,88.60
2018-05-24T17:56:55.562Z,88.00
2018-05-24T17:59:26.514Z,88.20
2018-05-24T18:02:03.108Z,89.10
2018-05-24T18:04:39.504Z,89.10
2018-05-24T18:07:11.057Z,89.50
2018-05-24T18:09:42.768Z,89.90
2018-05-24T18:12:12.843Z,89.70
2018-05-24T18:14:44.393Z,89.20
2018-05-24T18:17:16.214Z,89.70
2018-05-24T18:19:48.009Z,89.30
2018-05-24T18:22:27.717Z,88.80
2018-05-24T18:24:58.781Z,88.60
2018-05-24T18:27:37.403Z,87.50
2018-05-24T18:30:07.958Z,87.50
2018-05-24T18:32:38.533Z,87.70
2018-05-24T18:35:15.483Z,87.40
2018-05-24T18:37:50.523Z,87.40
2018-05-24T18:40:21.947Z,87.70
2018-05-24T18:42:52.437Z,87.70
2018-05-24T18:45:23.187Z,89.70
2018-05-24T18:47:54.227Z,89.70
2018-05-24T18:53:52.332Z,90.30
2018-05-24T18:59:53.867Z,90.80
2018-05-24T19:02:54.178Z,91.00
2018-05-24T19:05:25.829Z,91.00
2018-05-24T19:08:10.868Z,91.10
2018-05-24T19:13:38.702Z,91.10
2018-05-24T19:16:15.306Z,91.40
2018-05-24T19:18:47.042Z,91.40
2018-05-24T19:21:17.858Z,91.40
2018-05-24T19:23:49.867Z,91.30
2018-05-24T19:26:23.870Z,91.50
2018-05-24T19:28:53.990Z,91.50
2018-05-24T19:31:36.118Z,91.50
2018-05-24T19:34:34.096Z,91.50
2018-05-24T19:37:07.211Z,91.50
2018-05-24T19:39:37.931Z,91.50
2018-05-24T19:42:11.233Z,91.70
2018-05-24T19:44:43.987Z,91.90
2018-05-24T19:47:13.618Z,92.20
2018-05-24T19:49:43.299Z,92.40
2018-05-24T19:52:13.948Z,92.50
2018-05-24T19:54:45.463Z,92.70
2018-05-24T19:57:16.427Z,92.90
2018-05-24T19:59:46.318Z,93.10
2018-05-24T20:02:29.273Z,93.10
2018-05-24T20:05:01.148Z,92.90
2018-05-24T20:07:37.239Z,92.90
2018-05-24T20:10:07.844Z,92.70
2018-05-24T20:12:50.178Z,92.70
2018-05-24T20:15:21.495Z,92.90
2018-05-24T20:17:53.774Z,93.20
2018-05-24T20:20:38.216Z,93.30
2018-05-24T20:23:10.248Z,93.00
2018-05-24T20:25:41.347Z,92.90
2018-05-24T20:28:16.085Z,93.00
2018-05-24T20:30:59.058Z,93.00
2018-05-24T20:33:28.978Z,93.30
2018-05-24T20:36:05.539Z,93.50
2018-05-24T20:38:36.721Z,93.70
2018-05-24T20:41:07.538Z,93.80
2018-05-24T20:43:41.222Z,93.90
2018-05-24T20:46:12.078Z,93.90
2018-05-24T20:48:42.853Z,94.10
2018-05-24T20:51:17.757Z,94.30
2018-05-24T20:53:52.177Z,94.40
2018-05-24T20:56:32.468Z,94.70
2018-05-24T20:59:07.000Z,94.40
2018-05-24T21:01:38.756Z,94.30
2018-05-24T21:04:12.421Z,94.20
2018-05-24T21:06:45.526Z,94.40
2018-05-24T21:09:17.141Z,94.50
2018-05-24T21:11:49.021Z,94.60
2018-05-24T21:14:20.115Z,94.50
2018-05-24T21:16:49.890Z,94.50
2018-05-24T21:19:19.981Z,94.70
2018-05-24T21:21:50.074Z,94.80
2018-05-24T21:24:19.901Z,95.00
2018-05-24T21:26:51.406Z,95.00
2018-05-24T21:29:23.045Z,95.10
2018-05-24T21:31:52.793Z,95.20
2018-05-24T21:34:22.506Z,95.50
2018-05-24T21:36:52.883Z,95.90
2018-05-24T21:39:22.965Z,95.90
2018-05-24T21:41:53.672Z,96.10
2018-05-24T21:44:25.673Z,96.60
2018-05-24T21:47:04.725Z,96.50
2018-05-24T21:49:40.780Z,96.80
2018-05-24T21:52:17.237Z,97.20
2018-05-24T21:54:47.077Z,97.20
2018-05-24T21:57:18.553Z,97.60
2018-05-24T21:59:51.088Z,97.60
2018-05-24T22:02:28.706Z,97.80
2018-05-24T22:05:01.871Z,98.00
2018-05-24T22:07:31.768Z,98.20
2018-05-24T22:10:02.057Z,98.30
2018-05-24T22:12:34.968Z,98.70
2018-05-24T22:15:08.934Z,98.70
2018-05-24T22:17:42.254Z,99.00
2018-05-24T22:20:24.418Z,98.90
2018-05-24T22:23:04.423Z,99.10
2018-05-24T22:25:37.141Z,99.30
2018-05-24T22:28:19.297Z,99.50
2018-05-24T22:30:56.141Z,99.50
2018-05-24T22:33:26.829Z,99.50
2018-05-24T22:35:57.257Z,99.60
2018-05-24T22:38:33.882Z,99.50
2018-05-24T22:41:05.563Z,99.70
2018-05-24T22:43:45.972Z,99.90
2018-05-24T22:46:19.983Z,99.90
2018-05-24T22:48:49.276Z,99.90
2018-05-24T22:51:20.496Z,99.90
2018-05-24T22:53:49.854Z,99.90
2018-05-24T22:56:19.691Z,99.90
2018-05-24T22:58:49.605Z,99.90
2018-05-24T23:01:23.007Z,99.90
2018-05-24T23:03:53.024Z,99.90
2018-05-24T23:06:47.994Z,99.90
2018-05-24T23:13:02.545Z,99.90
2018-05-24T23:15:33.060Z,99.90
2018-05-24T23:18:03.576Z,99.90
2018-05-24T23:20:38.236Z,99.90
2018-05-24T23:23:13.484Z,99.90
2018-05-24T23:25:44.878Z,99.90
2018-05-24T23:28:23.910Z,99.90
2018-05-24T23:37:25.681Z,99.90
2018-05-24T23:39:59.310Z,99.90
2018-05-24T23:42:29.381Z,99.90
2018-05-24T23:45:02.283Z,99.90
2018-05-24T23:47:33.563Z,99.90
2018-05-24T23:50:03.704Z,99.90
2018-05-24T23:52:34.004Z,99.90
2018-05-24T23:55:04.123Z,99.90
2018-05-24T23:57:34.884Z,99.90
